Time;durP1;ratioP1;P1;durP2;ratioP2;P2;SDS_P1;SDS_P2;PMS_P1;PMS_P2;Temp;Humidity;BMP_temperature;BMP_pressure;BME280_temperature;BME280_humidity;BME280_pressure;Samples;Min_cycle;Max_cycle;Signal;HPM_P1;HPM_P2
2021/11/09 00:02:08;;;;;;;9.77;6.03;;;;;;;20.51;50.75;100984.06;4420963;32;20111;-69
2021/11/09 00:04:39;;;;;;;12.63;5.72;;;;;;;20.48;50.86;100992.84;4422876;32;20053;-69
2021/11/09 00:10:08;;;;;;;11.10;6.47;;;;;;;20.83;49.82;101000.03;3984837;32;15021127;-70
2021/11/09 00:12:37;;;;;;;9.75;5.93;;;;;;;20.73;50.38;101001.47;4431320;32;20378;-70
2021/11/09 00:15:06;;;;;;;10.57;6.10;;;;;;;20.80;50.14;100991.69;4432814;32;20105;-70
2021/11/09 00:17:32;;;;;;;17.05;6.50;;;;;;;20.84;50.01;100990.19;4432121;32;20053;-70
2021/11/09 00:19:58;;;;;;;9.20;5.30;;;;;;;20.42;50.69;100989.13;4434369;32;20014;-70
2021/11/09 00:22:25;;;;;;;12.77;6.68;;;;;;;20.48;50.40;100990.78;4434314;32;20605;-70
2021/11/09 00:24:51;;;;;;;12.65;5.72;;;;;;;20.41;50.60;100987.56;4431964;32;20077;-70
2021/11/09 00:27:17;;;;;;;7.37;4.50;;;;;;;20.57;50.06;100989.84;4434609;32;20034;-70
2021/11/09 00:29:44;;;;;;;8.75;4.18;;;;;;;20.19;50.78;100996.63;4433414;32;20095;-70
2021/11/09 00:32:10;;;;;;;10.60;4.68;;;;;;;20.45;50.01;100988.91;4431526;32;20099;-70
2021/11/09 00:34:36;;;;;;;6.85;4.00;;;;;;;20.40;50.08;100989.63;4434805;32;20064;-70
2021/11/09 00:37:04;;;;;;;11.23;4.32;;;;;;;20.55;49.73;100995.25;4433170;32;20100;-70
2021/11/09 00:39:29;;;;;;;9.23;3.90;;;;;;;20.50;49.83;100996.00;4435966;32;20103;-70
2021/11/09 00:41:56;;;;;;;7.57;3.22;;;;;;;20.48;49.51;100993.63;4432814;32;20423;-70
2021/11/09 00:44:23;;;;;;;9.05;3.90;;;;;;;20.59;49.34;100984.41;4436045;32;20125;-70
2021/11/09 00:46:49;;;;;;;5.45;3.40;;;;;;;20.62;49.10;100992.75;4435043;32;20451;-70
2021/11/09 00:49:15;;;;;;;4.53;3.20;;;;;;;20.62;49.23;100995.63;4432711;32;20103;-71
2021/11/09 00:51:43;;;;;;;11.38;3.03;;;;;;;20.54;49.22;100991.62;4433049;32;20077;-70
2021/11/09 00:54:09;;;;;;;5.85;2.70;;;;;;;20.59;48.93;100982.31;4431966;32;20034;-70
2021/11/09 00:56:35;;;;;;;8.25;2.72;;;;;;;20.64;48.68;100986.53;4431173;32;20421;-70
2021/11/09 00:59:01;;;;;;;4.65;2.40;;;;;;;20.29;49.48;100982.97;4431734;32;20104;-69
2021/11/09 01:01:27;;;;;;;5.62;2.50;;;;;;;20.30;49.36;100982.50;4433948;32;20047;-69
2021/11/09 01:03:53;;;;;;;6.97;2.30;;;;;;;20.39;48.93;100990.94;4434382;32;20089;-69
2021/11/09 01:06:19;;;;;;;4.62;1.90;;;;;;;20.36;48.95;100983.34;4431117;32;20094;-69
2021/11/09 01:08:45;;;;;;;6.30;2.00;;;;;;;20.68;47.93;100989.97;4430793;32;20053;-70
2021/11/09 01:11:10;;;;;;;5.03;2.00;;;;;;;20.67;47.98;100994.91;4434216;32;20104;-70
2021/11/09 01:13:36;;;;;;;4.93;2.00;;;;;;;20.51;48.41;100997.56;4433205;32;20412;-69
2021/11/09 01:16:03;;;;;;;8.13;2.08;;;;;;;20.46;48.50;100990.47;4431982;32;20444;-69
2021/11/09 01:18:33;;;;;;;6.07;2.92;;;;;;;20.27;49.19;101002.69;4431422;32;20779;-69
2021/11/09 01:20:59;;;;;;;5.72;2.40;;;;;;;20.54;48.95;101005.94;4426655;32;20415;-69
2021/11/09 01:23:26;;;;;;;5.28;2.70;;;;;;;20.33;49.38;101000.69;4421698;32;20471;-69
2021/11/09 01:25:53;;;;;;;7.05;2.80;;;;;;;20.30;49.70;100999.63;4422969;32;20128;-69
2021/11/09 01:28:19;;;;;;;9.38;3.05;;;;;;;20.28;49.69;101007.91;4424433;32;20032;-69
2021/11/09 01:30:46;;;;;;;5.00;2.70;;;;;;;20.18;49.73;101009.34;4424200;32;20489;-69
2021/11/09 01:33:13;;;;;;;7.75;3.20;;;;;;;20.53;49.10;101032.16;4423292;32;20022;-69
2021/11/09 01:35:39;;;;;;;5.62;3.17;;;;;;;20.47;49.28;101026.38;4420593;32;20034;-69
2021/11/09 01:38:05;;;;;;;6.95;2.97;;;;;;;20.28;49.71;101030.00;4422459;32;20457;-69
2021/11/09 01:40:32;;;;;;;7.05;3.20;;;;;;;20.40;49.40;101026.78;4424045;32;20073;-69
2021/11/09 01:43:01;;;;;;;9.82;3.58;;;;;;;20.55;49.22;101023.84;4422077;32;20506;-69
2021/11/09 01:45:27;;;;;;;6.85;3.30;;;;;;;20.81;48.65;101031.22;4421539;32;20084;-69
2021/11/09 01:47:54;;;;;;;10.75;3.50;;;;;;;20.54;49.29;101034.53;4420930;32;20127;-69
2021/11/09 01:50:26;;;;;;;5.03;3.40;;;;;;;20.62;49.13;101034.88;4422853;32;20168;-69
2021/11/09 01:52:52;;;;;;;8.60;3.30;;;;;;;20.69;49.20;101038.09;4423184;32;20073;-69
2021/11/09 01:55:20;;;;;;;7.97;3.05;;;;;;;20.25;50.01;101048.16;4423701;32;20018;-69
2021/11/09 01:57:47;;;;;;;6.62;2.97;;;;;;;20.46;49.60;101032.59;4421263;32;20324;-69
2021/11/09 02:00:20;;;;;;;8.32;3.00;;;;;;;20.82;48.73;101044.22;4419906;32;20167;-69
2021/11/09 02:02:47;;;;;;;6.87;3.12;;;;;;;21.20;47.94;101041.03;4420749;32;20022;-69
2021/11/09 02:05:14;;;;;;;7.28;2.83;;;;;;;21.30;47.57;101048.16;4420788;32;20145;-69
2021/11/09 02:07:46;;;;;;;5.47;2.65;;;;;;;21.65;46.64;101051.63;4423412;32;20130;-69
2021/11/09 02:10:12;;;;;;;7.72;2.90;;;;;;;21.65;46.64;101051.63;4423046;32;20604;-69
2021/11/09 02:12:39;;;;;;;6.55;3.00;;;;;;;21.58;46.68;101037.78;4423484;32;20046;-69
2021/11/09 02:15:07;;;;;;;9.32;2.97;;;;;;;21.79;46.29;101043.44;4424026;32;20422;-69
2021/11/09 02:17:37;;;;;;;9.27;2.67;;;;;;;22.03;45.77;101043.87;4418428;32;20614;-69
2021/11/09 02:20:04;;;;;;;6.20;2.53;;;;;;;22.44;44.86;101059.50;4423042;32;20425;-69
2021/11/09 02:22:30;;;;;;;5.93;2.25;;;;;;;22.64;43.95;101057.28;4420638;32;20302;-69
2021/11/09 02:24:55;;;;;;;4.00;2.25;;;;;;;22.67;43.95;101055.50;4424285;32;20114;-69
2021/11/09 02:27:21;;;;;;;5.18;1.70;;;;;;;22.76;43.59;101049.50;4423118;32;20089;-70
2021/11/09 02:29:47;;;;;;;10.93;2.10;;;;;;;22.74;43.46;101055.75;4419947;32;20073;-70
2021/11/09 02:32:12;;;;;;;4.97;1.70;;;;;;;23.09;42.86;101053.28;4424070;32;20089;-69
2021/11/09 02:34:38;;;;;;;10.32;2.20;;;;;;;23.17;42.53;101044.94;4423000;32;20274;-69
2021/11/09 02:37:04;;;;;;;7.15;1.70;;;;;;;23.01;42.28;101049.34;4422166;32;20102;-69
2021/11/09 02:39:29;;;;;;;5.18;1.77;;;;;;;23.39;42.10;101056.50;4424870;32;20100;-70
2021/11/09 02:41:55;;;;;;;4.45;1.60;;;;;;;23.37;41.85;101050.50;4423938;32;20524;-70
2021/11/09 02:44:24;;;;;;;6.93;1.73;;;;;;;23.45;41.82;101049.47;4421573;32;20411;-70
2021/11/09 02:46:53;;;;;;;3.70;1.70;;;;;;;23.56;41.49;101045.81;4420790;32;20415;-70
2021/11/09 02:52:03;;;;;;;3.90;1.48;;;;;;;23.70;41.51;101033.28;3955235;32;15725351;-70
2021/11/09 02:54:35;;;;;;;7.80;1.75;;;;;;;23.70;41.51;101033.28;4434527;32;20339;-70
2021/11/09 02:57:04;;;;;;;5.68;1.62;;;;;;;23.27;41.90;101037.69;4433835;32;20398;-70
2021/11/09 03:12:40;;;;;;;8.15;1.42;;;;;;;22.56;43.89;101021.00;3989900;31;15015269;-70
2021/11/09 03:15:10;;;;;;;7.85;1.70;;;;;;;22.56;43.89;101021.00;4441812;32;20041;-70
2021/11/09 03:17:42;;;;;;;4.25;1.50;;;;;;;22.08;44.28;101008.72;4441484;32;20033;-70
2021/11/09 03:20:14;;;;;;;7.40;1.70;;;;;;;21.76;45.11;101010.06;4443008;32;20438;-70
2021/11/09 03:47:25;;;;;;;8.10;2.42;;;;;;;22.00;44.61;101033.44;3983230;32;15021704;-70
2021/11/09 03:49:53;;;;;;;7.50;1.83;;;;;;;22.00;44.61;101033.44;4439054;32;20425;-70
2021/11/09 03:52:24;;;;;;;6.60;1.98;;;;;;;21.61;45.17;101027.37;4435840;32;20084;-70
2021/11/09 03:54:58;;;;;;;8.27;2.00;;;;;;;21.82;44.96;101031.75;4435061;32;20061;-70
2021/11/09 04:05:22;;;;;;;8.18;1.98;;;;;;;22.21;44.11;101028.47;3986093;32;15022255;-69
2021/11/09 04:07:59;;;;;;;5.32;2.00;;;;;;;22.23;44.02;101029.38;4438318;32;20067;-69
2021/11/09 04:21:26;;;;;;;6.40;1.80;;;;;;;22.34;43.77;101027.41;4438623;32;20037;-68
2021/11/09 04:24:11;;;;;;;13.32;3.03;;;;;;;21.47;45.26;101019.69;4437329;32;20425;-68
2021/11/09 04:33:17;;;;;;;7.97;1.92;;;;;;;21.63;45.39;101016.97;3986608;32;15022403;-70
2021/11/09 05:08:28;;;;;;;6.53;2.12;;;;;;;21.51;45.39;101021.03;4430738;32;20069;-70
2021/11/09 05:10:38;;;;;;;;;;;;;;;20.72;46.60;101017.06;4416851;32;20130;-70
2021/11/09 05:13:03;;;;;;;8.20;2.00;;;;;;;21.11;45.63;101017.53;4435143;32;19969;-70
2021/11/09 05:15:29;;;;;;;9.35;2.28;;;;;;;20.81;46.37;101019.00;4433428;32;20025;-70
2021/11/09 05:17:55;;;;;;;8.20;2.20;;;;;;;20.74;46.60;101017.34;4431228;32;20097;-70
2021/11/09 05:20:21;;;;;;;12.48;1.92;;;;;;;20.51;46.88;101018.38;4432637;32;20062;-70
2021/11/09 05:22:47;;;;;;;5.65;2.12;;;;;;;20.34;46.96;101010.88;4430193;32;20045;-70
2021/11/09 05:25:13;;;;;;;15.07;1.65;;;;;;;20.20;47.65;101011.69;4429779;32;20406;-70
2021/11/09 05:27:40;;;;;;;6.37;2.00;;;;;;;20.13;47.74;101015.00;4429980;32;21362;-70
2021/11/09 05:30:06;;;;;;;8.38;1.70;;;;;;;20.13;47.90;101015.00;4432635;32;20410;-70
2021/11/09 05:32:32;;;;;;;8.13;2.28;;;;;;;20.19;47.82;101008.03;4433244;32;20159;-70
2021/11/09 05:34:58;;;;;;;6.00;2.12;;;;;;;20.05;48.29;101006.00;4430824;32;20045;-70
2021/11/09 05:37:29;;;;;;;7.97;1.80;;;;;;;19.84;48.38;101007.25;4435150;32;20537;-70
2021/11/09 05:39:57;;;;;;;9.30;1.85;;;;;;;19.99;48.25;101001.50;4431314;32;20103;-70
2021/11/09 05:42:23;;;;;;;7.07;2.05;;;;;;;20.02;48.29;101004.16;4430172;32;20103;-70
2021/11/09 05:44:49;;;;;;;13.32;2.05;;;;;;;19.95;48.25;101003.78;4430021;32;20376;-70
2021/11/09 05:47:15;;;;;;;8.52;1.85;;;;;;;19.95;48.48;101007.44;4431455;32;20061;-70
2021/11/09 05:49:41;;;;;;;7.55;1.98;;;;;;;20.06;48.18;101013.28;4432095;32;20068;-70
2021/11/09 05:52:08;;;;;;;14.68;1.67;;;;;;;20.20;47.95;101015.34;4432858;32;20116;-70
2021/11/09 05:54:34;;;;;;;7.40;1.40;;;;;;;20.26;47.97;101016.22;4432334;32;20034;-70
2021/11/09 05:57:01;;;;;;;9.48;1.90;;;;;;;19.95;48.56;101018.84;4431254;32;20081;-70
2021/11/09 05:59:26;;;;;;;7.75;1.70;;;;;;;19.98;48.32;101015.00;4427938;32;20079;-70
2021/11/09 06:01:52;;;;;;;7.22;1.48;;;;;;;19.91;48.75;101001.12;4432853;32;20138;-70
2021/11/09 06:04:18;;;;;;;5.05;1.37;;;;;;;20.06;48.41;101006.81;4428551;32;20082;-70
2021/11/09 06:06:44;;;;;;;10.68;2.30;;;;;;;19.76;49.11;101008.97;4428872;32;20073;-70
2021/11/09 06:09:10;;;;;;;11.38;1.85;;;;;;;19.89;48.43;101014.34;4430685;32;20076;-70
2021/11/09 06:11:36;;;;;;;10.07;1.80;;;;;;;20.01;48.42;101016.87;4427014;32;20521;-70
2021/11/09 06:14:02;;;;;;;8.25;2.28;;;;;;;19.76;49.03;101006.09;4430852;32;20026;-70
2021/11/09 06:16:28;;;;;;;10.63;1.83;;;;;;;20.05;48.37;101016.66;4419071;32;20077;-70
2021/11/09 06:18:54;;;;;;;7.68;1.50;;;;;;;20.21;47.99;101016.13;4422648;32;20156;-70
2021/11/09 06:21:20;;;;;;;6.70;1.55;;;;;;;20.30;47.67;101013.13;4419884;32;20688;-70
2021/11/09 06:23:45;;;;;;;8.82;2.40;;;;;;;20.25;47.63;101013.88;4422939;32;21135;-69
2021/11/09 06:26:11;;;;;;;10.30;4.00;;;;;;;20.30;47.55;101005.34;4418520;32;20046;-69
2021/11/09 06:28:39;;;;;;;11.32;1.95;;;;;;;20.29;47.53;101003.00;4420366;32;20444;-69
2021/11/09 06:31:05;;;;;;;14.73;3.78;;;;;;;20.55;47.10;100998.12;4421363;32;20045;-69
2021/11/09 06:33:32;;;;;;;10.45;2.08;;;;;;;20.24;47.68;100995.91;4419031;32;20518;-69
2021/11/09 06:35:58;;;;;;;11.20;2.33;;;;;;;20.39;47.34;100993.78;4420681;32;20057;-69
2021/11/09 06:38:25;;;;;;;6.80;1.85;;;;;;;20.52;46.98;100988.47;4420941;32;20174;-69
2021/11/09 06:40:51;;;;;;;8.75;2.45;;;;;;;20.62;46.78;100989.13;4421516;32;20061;-69
2021/11/09 06:43:17;;;;;;;9.30;2.20;;;;;;;20.84;46.11;100989.37;4417699;32;20072;-69
2021/11/09 06:45:43;;;;;;;8.77;1.85;;;;;;;20.81;46.05;100990.38;4418016;32;20444;-69
2021/11/09 06:48:10;;;;;;;8.65;2.12;;;;;;;20.78;46.22;100992.19;4422441;32;20122;-69
2021/11/09 06:50:37;;;;;;;7.95;1.70;;;;;;;20.87;46.10;100994.09;4425076;32;20222;-69
2021/11/09 06:53:03;;;;;;;6.03;2.10;;;;;;;20.83;46.07;100994.31;4418280;32;20048;-69
2021/11/09 06:55:29;;;;;;;7.70;2.47;;;;;;;20.68;46.13;100981.41;4420541;32;20077;-69
2021/11/09 06:57:55;;;;;;;9.68;2.22;;;;;;;20.68;46.38;100987.13;4422152;32;20068;-69
2021/11/09 07:00:23;;;;;;;8.35;1.60;;;;;;;20.82;45.81;100983.38;4420115;32;20113;-69
2021/11/09 07:02:50;;;;;;;5.50;1.50;;;;;;;20.36;46.90;100989.06;4420064;32;20144;-69
2021/11/09 07:05:17;;;;;;;9.57;1.77;;;;;;;20.24;47.34;100978.78;4405649;32;20089;-69
2021/11/09 07:07:44;;;;;;;6.72;2.00;;;;;;;20.43;46.71;100980.03;4420355;32;20017;-69
2021/11/09 07:10:11;;;;;;;11.63;2.58;;;;;;;20.68;46.36;100987.88;4420904;32;20494;-69
2021/11/09 07:12:37;;;;;;;6.55;1.52;;;;;;;20.84;45.89;100992.25;4420982;32;20038;-69
2021/11/09 07:15:04;;;;;;;10.63;1.58;;;;;;;20.73;46.02;100989.25;4420317;32;20511;-69
2021/11/09 07:17:31;;;;;;;9.68;1.85;;;;;;;20.67;46.13;100992.03;4415779;32;20462;-69
2021/11/09 07:19:58;;;;;;;9.18;1.85;;;;;;;20.51;46.38;100989.78;4421767;32;20842;-69
2021/11/09 07:22:24;;;;;;;9.30;1.75;;;;;;;20.65;45.93;100986.03;4418733;32;20064;-69
2021/11/09 07:24:50;;;;;;;7.37;1.48;;;;;;;20.51;46.16;100997.56;4420540;32;20041;-69
2021/11/09 07:27:16;;;;;;;14.60;2.30;;;;;;;20.62;46.13;101004.19;4418148;32;20069;-69
2021/11/09 07:29:47;;;;;;;9.20;1.70;;;;;;;20.87;45.65;100997.75;4419822;32;20069;-69
2021/11/09 07:32:14;;;;;;;5.32;1.70;;;;;;;20.62;46.18;100992.00;4417810;32;20078;-68
2021/11/09 07:34:39;;;;;;;11.18;1.52;;;;;;;20.73;45.73;100995.75;4420008;32;20034;-69
2021/11/09 07:37:06;;;;;;;8.50;1.83;;;;;;;20.40;46.31;101001.06;4419093;32;20065;-69
2021/11/09 07:39:32;;;;;;;9.88;2.12;;;;;;;20.51;46.28;100998.34;4421850;32;20096;-69
2021/11/09 07:41:58;;;;;;;5.22;1.70;;;;;;;20.21;47.09;100991.19;4417245;32;20426;-68
2021/11/09 07:44:24;;;;;;;7.40;1.40;;;;;;;19.94;47.69;101000.13;4414937;32;20066;-69
2021/11/09 07:46:50;;;;;;;6.18;1.70;;;;;;;19.78;48.17;101004.31;4412070;32;20026;-69
2021/11/09 07:49:16;;;;;;;9.90;1.67;;;;;;;19.92;47.83;101010.47;4413916;32;20103;-69
2021/11/09 07:51:42;;;;;;;10.98;1.65;;;;;;;20.02;47.49;101012.72;4415221;32;20034;-70
2021/11/09 07:54:08;;;;;;;4.57;1.50;;;;;;;19.88;47.91;101019.25;4413141;32;20039;-69
2021/11/09 07:56:37;;;;;;;5.93;1.60;;;;;;;19.80;48.15;101007.44;4407542;32;20097;-69
2021/11/09 07:59:23;;;;;;;8.60;1.40;;;;;;;19.82;48.12;101021.22;4409001;32;20081;-69
2021/11/09 08:02:00;;;;;;;4.12;1.20;;;;;;;20.02;47.81;101023.34;4401034;32;20104;-69
2021/11/09 08:07:11;;;;;;;11.35;1.55;;;;;;;20.33;47.38;101038.66;3969547;32;15024019;-69
2021/11/09 08:09:37;;;;;;;9.70;1.65;;;;;;;20.33;47.38;101038.66;4426299;32;20159;-70
2021/11/09 08:12:05;;;;;;;7.28;1.40;;;;;;;19.96;47.59;101031.06;4426999;32;20222;-70
2021/11/09 08:14:33;;;;;;;9.80;1.73;;;;;;;20.00;48.00;101035.28;4424309;32;20067;-70
2021/11/09 08:16:59;;;;;;;5.60;1.40;;;;;;;20.11;47.65;101031.81;4424000;32;20784;-70
2021/11/09 08:19:25;;;;;;;10.98;1.67;;;;;;;20.12;47.48;101036.25;4425948;32;20077;-70
2021/11/09 08:21:54;;;;;;;8.52;1.73;;;;;;;20.14;47.46;101042.28;4423705;32;20100;-70
2021/11/09 08:24:21;;;;;;;9.82;1.80;;;;;;;20.51;46.73;101029.81;4426052;32;20160;-70
2021/11/09 08:26:48;;;;;;;7.62;1.62;;;;;;;20.26;47.08;101032.56;4427742;32;20120;-70
2021/11/09 08:29:14;;;;;;;8.02;1.40;;;;;;;20.62;46.46;101029.16;4428203;32;20388;-70
2021/11/09 08:31:43;;;;;;;10.90;1.80;;;;;;;20.51;46.40;101031.88;4421904;32;20042;-70
2021/11/09 08:34:09;;;;;;;7.62;1.40;;;;;;;20.60;46.39;101026.81;4426514;32;20112;-70
2021/11/09 08:36:38;;;;;;;9.15;1.92;;;;;;;20.68;45.95;101027.94;4425092;32;20471;-70
2021/11/09 08:39:06;;;;;;;8.82;1.50;;;;;;;20.93;45.67;101027.19;4424463;32;20094;-70
2021/11/09 08:41:53;;;;;;;4.95;1.40;;;;;;;21.10;45.50;101036.78;4428192;32;20080;-69
2021/11/09 08:44:21;;;;;;;6.05;1.62;;;;;;;21.02;45.40;101032.00;4422136;32;20142;-69
2021/11/09 08:46:51;;;;;;;11.77;2.12;;;;;;;20.97;45.17;101033.50;4424770;32;20743;-69
2021/11/09 08:49:22;;;;;;;6.32;1.52;;;;;;;21.43;44.63;101034.25;4425334;32;20402;-70
2021/11/09 08:51:50;;;;;;;7.47;1.40;;;;;;;21.67;44.09;101040.44;4429661;32;20157;-69
2021/11/09 08:54:22;;;;;;;8.55;1.50;;;;;;;21.42;44.25;101031.91;4427351;32;20569;-69
2021/11/09 09:05:14;;;;;;;5.50;1.30;;;;;;;21.90;43.13;101029.97;4427400;32;20186;-70
2021/11/09 09:07:42;;;;;;;8.43;1.70;;;;;;;22.33;42.55;101043.00;4429075;32;20088;-70
2021/11/09 09:10:11;;;;;;;8.68;1.92;;;;;;;22.50;42.05;101038.19;4427789;32;20048;-70
2021/11/09 09:12:39;;;;;;;9.48;1.80;;;;;;;22.62;41.45;101041.91;4427963;32;20055;-70
2021/11/09 09:15:07;;;;;;;9.85;1.40;;;;;;;22.99;41.23;101033.94;4426855;32;20167;-69
2021/11/09 09:17:35;;;;;;;6.35;1.50;;;;;;;23.19;40.64;101034.50;4427994;32;21746;-69
2021/11/09 09:20:09;;;;;;;7.22;1.77;;;;;;;22.76;41.17;101038.81;4425123;32;20029;-69
2021/11/09 09:22:41;;;;;;;8.52;1.65;;;;;;;23.15;40.25;101039.72;4429176;32;20099;-69
2021/11/09 09:52:41;;;;;;;;;;;;;;;22.97;41.40;101048.81;4427121;32;20080;-70
2021/11/09 09:57:51;;;;;;;9.35;1.95;;;;;;;23.63;40.59;101073.25;3984160;32;15061388;-70
2021/11/09 10:00:17;;;;;;;7.28;1.55;;;;;;;23.63;40.59;101073.25;4442452;32;20418;-70
2021/11/09 10:02:50;;;;;;;6.50;1.80;;;;;;;22.94;41.52;101064.19;4437865;32;20126;-71
2021/11/09 10:05:17;;;;;;;12.32;1.52;;;;;;;23.37;40.78;101079.22;4439676;32;20110;-70
2021/11/09 10:07:49;;;;;;;6.40;1.70;;;;;;;23.89;39.85;101065.94;4441542;32;20395;-70
2021/11/09 10:10:23;;;;;;;9.63;1.77;;;;;;;24.12;39.45;101093.41;4426095;32;20142;-70
2021/11/09 10:15:46;;;;;;;3.92;1.25;;;;;;;25.84;36.61;101087.69;3992590;31;15015712;-72
2021/11/09 10:18:14;;;;;;;5.45;1.70;;;;;;;25.84;36.61;101087.69;4445439;32;20508;-70
2021/11/09 10:20:50;;;;;;;6.60;1.20;;;;;;;25.52;36.94;101092.41;4439576;32;20037;-71
2021/11/09 10:23:20;;;;;;;7.87;1.65;;;;;;;25.43;37.01;101086.97;4446186;32;20072;-71
2021/11/09 10:25:50;;;;;;;7.32;1.75;;;;;;;25.55;36.75;101074.81;4445342;32;20115;-70
2021/11/09 10:28:19;;;;;;;6.25;1.70;;;;;;;25.57;36.86;101071.37;4447734;32;21011;-71
2021/11/09 10:33:27;;;;;;;4.82;1.40;;;;;;;25.79;36.78;101072.00;3984538;32;15035411;-71
2021/11/09 10:35:55;;;;;;;9.90;2.20;;;;;;;25.79;36.78;101072.00;4436270;32;20109;-69
2021/11/09 10:38:31;;;;;;;6.12;1.52;;;;;;;24.93;37.90;101079.34;4435620;32;20100;-69
2021/11/09 10:40:59;;;;;;;7.68;1.60;;;;;;;24.94;37.87;101075.13;4434360;32;20534;-70
2021/11/09 10:43:28;;;;;;;8.13;1.62;;;;;;;25.01;38.21;101080.34;4436986;32;20519;-69
2021/11/09 10:45:53;;;;;;;8.05;1.75;;;;;;;24.64;38.43;101065.56;4428196;32;20079;-70
2021/11/09 10:48:21;;;;;;;7.07;1.42;;;;;;;24.85;38.24;101068.91;4438386;32;20235;-70
2021/11/09 10:50:51;;;;;;;6.07;1.52;;;;;;;24.53;39.17;101076.31;4437908;32;20144;-67
2021/11/09 10:53:30;;;;;;;9.00;1.92;;;;;;;24.58;39.15;101082.03;4438579;32;20068;-68
2021/11/09 11:11:45;;;;;;;7.03;1.87;;;;;;;25.04;39.11;101069.88;3971945;32;15022708;-70
2021/11/09 11:16:54;;;;;;;7.85;1.90;;;;;;;25.08;38.99;101071.16;3978384;32;15022811;-70
2021/11/09 11:19:23;;;;;;;4.40;1.75;;;;;;;25.08;38.99;101071.16;4429446;32;20160;-69
2021/11/09 11:21:50;;;;;;;3.55;1.83;;;;;;;24.36;40.04;101064.06;4433272;32;20073;-70
2021/11/09 11:24:18;;;;;;;4.28;1.30;;;;;;;24.45;39.99;101058.03;4431152;32;20112;-70
2021/11/09 11:26:45;;;;;;;3.03;1.12;;;;;;;24.41;39.74;101061.19;4424329;32;20092;-71
2021/11/09 11:29:16;;;;;;;9.77;1.40;;;;;;;24.60;39.69;101065.03;4426331;32;20179;-70
2021/11/09 11:31:43;;;;;;;7.10;2.00;;;;;;;24.90;38.92;101065.22;4433557;32;20080;-70
2021/11/09 11:34:09;;;;;;;4.50;1.40;;;;;;;25.09;38.69;101066.94;4430681;32;20649;-69
2021/11/09 11:36:35;;;;;;;2.78;1.25;;;;;;;24.87;39.33;101064.19;4430725;32;20202;-69
2021/11/09 11:39:05;;;;;;;2.65;0.98;;;;;;;24.67;39.60;101058.75;4431699;32;20512;-69
2021/11/09 11:41:34;;;;;;;7.72;1.50;;;;;;;24.05;40.93;101070.16;4433293;32;20089;-69
2021/11/09 11:44:05;;;;;;;4.35;1.23;;;;;;;24.80;39.75;101050.34;4429220;32;20403;-69
2021/11/09 11:49:10;;;;;;;6.22;1.70;;;;;;;25.41;38.71;101052.91;3947099;32;15722321;-70
2021/11/09 11:51:39;;;;;;;5.62;1.80;;;;;;;25.41;38.71;101052.91;4424992;32;20029;-70
2021/11/09 11:54:08;;;;;;;8.73;2.05;;;;;;;24.91;39.29;101035.12;4425053;32;20077;-70
2021/11/09 12:02:02;;;;;;;10.60;2.12;;;;;;;25.32;39.16;101035.94;3972503;32;15022800;-69
2021/11/09 12:04:49;;;;;;;3.65;1.75;;;;;;;25.32;39.16;101035.94;4424177;32;20418;-69
2021/11/09 12:07:18;;;;;;;6.18;1.50;;;;;;;24.90;39.89;101028.56;4414813;32;20062;-69
2021/11/09 12:09:46;;;;;;;6.55;2.25;;;;;;;25.25;39.28;101024.97;4421145;32;21312;-69
2021/11/09 12:14:59;;;;;;;7.15;1.50;;;;;;;27.63;35.35;101025.97;3972339;32;15025373;-70
2021/11/09 12:22:48;;;;;;;4.03;1.55;;;;;;;30.60;30.48;101027.19;3973983;32;15023569;-70
2021/11/09 12:25:36;;;;;;;5.85;1.45;;;;;;;30.60;30.48;101027.19;4428377;32;20110;-71
2021/11/09 12:33:20;;;;;;;11.23;1.70;;;;;;;29.26;32.35;101018.84;3968197;32;15026560;-70
2021/11/09 12:38:30;;;;;;;6.70;2.10;;;;;;;29.05;32.69;101015.09;3981030;32;15022386;-70
2021/11/09 12:40:57;;;;;;;8.05;1.70;;;;;;;29.05;32.69;101015.09;4443817;32;20726;-70
2021/11/09 12:48:51;;;;;;;4.15;1.42;;;;;;;27.92;34.65;101014.16;3975772;32;15024120;-70
2021/11/09 12:51:23;;;;;;;7.57;2.22;;;;;;;27.92;34.65;101014.16;4427668;32;20037;-71
2021/11/09 12:53:50;;;;;;;5.50;1.70;;;;;;;26.88;36.32;101010.81;4427185;32;20433;-70
2021/11/09 12:56:23;;;;;;;6.47;1.52;;;;;;;26.99;36.25;101005.63;4426270;32;20418;-70
2021/11/09 12:58:57;;;;;;;3.35;1.50;;;;;;;27.04;35.97;101004.78;4426582;32;20064;-70
2021/11/09 13:01:35;;;;;;;4.10;1.47;;;;;;;27.29;35.73;101002.59;4420844;32;20198;-70
2021/11/09 13:14:35;;;;;;;11.12;1.45;;;;;;;28.14;34.67;100998.53;3978970;32;15021284;-70
2021/11/09 13:17:11;;;;;;;3.90;1.27;;;;;;;28.14;34.67;100998.53;4428202;32;20398;-69
2021/11/09 13:19:38;;;;;;;5.43;1.35;;;;;;;27.88;34.90;100996.37;4428757;32;20052;-70
2021/11/09 13:22:08;;;;;;;6.82;1.70;;;;;;;27.68;35.00;100996.97;4431992;32;20081;-70
2021/11/09 13:24:38;;;;;;;7.20;1.55;;;;;;;27.68;35.04;100984.59;4431247;32;20100;-70
2021/11/09 13:27:08;;;;;;;4.43;1.15;;;;;;;27.74;35.37;100988.19;4430373;32;21485;-71
2021/11/09 13:29:45;;;;;;;10.38;1.55;;;;;;;28.87;33.44;100993.59;4426319;32;20074;-71
2021/11/09 13:32:12;;;;;;;4.40;1.25;;;;;;;29.65;32.05;100996.25;4428185;32;20084;-72
2021/11/09 13:34:39;;;;;;;4.97;1.25;;;;;;;30.79;30.23;100989.94;4430294;32;20103;-71
2021/11/09 13:37:05;;;;;;;5.22;1.65;;;;;;;31.91;28.85;100995.25;4428647;32;20660;-71
2021/11/09 13:39:31;;;;;;;5.75;1.15;;;;;;;32.79;27.54;101005.06;4424160;32;20038;-72
2021/11/09 13:41:57;;;;;;;4.85;1.40;;;;;;;33.27;26.66;101004.47;4424825;32;20097;-71
2021/11/09 13:44:32;;;;;;;2.67;1.15;;;;;;;33.32;26.69;101005.59;4426945;32;20068;-71
2021/11/09 13:46:57;;;;;;;4.78;1.02;;;;;;;33.48;26.55;101004.16;4426487;32;20428;-70
2021/11/09 13:49:25;;;;;;;4.35;1.58;;;;;;;33.41;26.51;100990.41;4426445;32;20068;-71
2021/11/09 13:51:59;;;;;;;3.37;1.15;;;;;;;32.87;26.92;100994.94;4427642;32;20407;-71
2021/11/09 13:54:31;;;;;;;3.45;1.35;;;;;;;32.81;27.44;100991.44;4430330;32;20090;-71
2021/11/09 13:56:59;;;;;;;3.67;0.98;;;;;;;32.51;27.86;100991.53;4431008;32;20101;-71
2021/11/09 14:13:17;;;;;;;5.90;1.80;;;;;;;27.93;35.65;100983.91;4419341;32;20624;-70
2021/11/09 14:15:53;;;;;;;4.20;2.45;;;;;;;27.41;36.28;100972.19;4421761;32;20041;-68
2021/11/09 14:18:23;;;;;;;4.12;1.92;;;;;;;27.08;37.01;100975.56;4410550;32;20088;-68
2021/11/09 14:20:53;;;;;;;3.78;1.60;;;;;;;26.84;37.48;100975.66;4421863;32;20026;-69
2021/11/09 14:23:40;;;;;;;5.25;1.70;;;;;;;26.72;37.68;100974.28;4419944;32;20364;-68
2021/11/09 14:26:24;;;;;;;5.50;1.58;;;;;;;26.97;37.34;100969.97;4407002;32;20416;-69
2021/11/09 14:28:53;;;;;;;3.83;1.73;;;;;;;26.94;37.33;100965.28;4423137;32;20072;-70
2021/11/09 14:31:25;;;;;;;7.90;2.42;;;;;;;26.51;38.34;100967.44;4413298;32;20193;-70
2021/11/09 14:33:53;;;;;;;7.47;2.50;;;;;;;26.85;37.85;100971.47;4417731;32;20018;-70
2021/11/09 14:36:28;;;;;;;6.35;3.12;;;;;;;26.33;38.67;100976.84;4419401;32;20038;-69
2021/11/09 14:39:13;;;;;;;;;;;;;;;26.75;37.99;100982.59;4424092;32;20116;-69
2021/11/09 14:45:13;;;;;;;6.45;2.97;;;;;;;26.83;38.25;100991.44;3974421;32;15026048;-70
2021/11/09 14:47:44;;;;;;;4.40;2.25;;;;;;;26.83;38.25;100991.44;4429726;32;20037;-70
2021/11/09 14:50:20;;;;;;;4.95;2.15;;;;;;;25.84;39.74;100978.12;4430290;32;20073;-70
2021/11/09 14:52:47;;;;;;;5.80;2.10;;;;;;;25.38;41.10;100962.53;4430253;32;20431;-70
2021/11/09 14:57:52;;;;;;;7.53;2.75;;;;;;;25.79;40.87;100981.81;3978008;32;15022209;-70
2021/11/09 15:00:19;;;;;;;5.62;1.98;;;;;;;25.79;40.87;100981.81;4431582;32;20110;-70
2021/11/09 15:02:46;;;;;;;4.85;1.87;;;;;;;24.89;42.28;100980.94;4429224;32;20491;-70
2021/11/09 15:05:22;;;;;;;3.62;2.15;;;;;;;25.12;41.85;100988.12;4420984;32;20045;-70
2021/11/09 15:13:21;;;;;;;4.57;2.28;;;;;;;24.85;43.12;100997.69;3980714;31;15017931;-70
2021/11/09 15:29:55;;;;;;;5.35;2.60;;;;;;;24.05;45.10;100996.16;4431819;32;20084;-71
2021/11/09 15:32:28;;;;;;;6.97;2.95;;;;;;;23.76;46.00;101002.44;4429876;32;20613;-71
2021/11/09 15:35:07;;;;;;;7.75;3.30;;;;;;;23.93;45.67;101006.06;4433005;32;20151;-70